sensor_id;sensor_type;location;lat;lon;timestamp;P1;durP1;ratioP1;P2;durP2;ratioP2
9698;SDS011;10089;47.876;8.346;2023-05-28T00:00:46;9.13;;;4.72;;
9698;SDS011;10089;47.876;8.346;2023-05-28T00:03:12;8.98;;;5.63;;
9698;SDS011;10089;47.876;8.346;2023-05-28T00:05:37;8.48;;;5.35;;
9698;SDS011;10089;47.876;8.346;2023-05-28T00:08:03;7.20;;;5.25;;
9698;SDS011;10089;47.876;8.346;2023-05-28T00:10:29;7.88;;;5.00;;
9698;SDS011;10089;47.876;8.346;2023-05-28T00:12:55;10.68;;;5.00;;
9698;SDS011;10089;47.876;8.346;2023-05-28T00:15:21;6.75;;;4.72;;
9698;SDS011;10089;47.876;8.346;2023-05-28T00:17:47;7.53;;;5.07;;
9698;SDS011;10089;47.876;8.346;2023-05-28T00:20:12;9.80;;;4.60;;
9698;SDS011;10089;47.876;8.346;2023-05-28T00:22:38;10.20;;;5.18;;
9698;SDS011;10089;47.876;8.346;2023-05-28T00:25:05;8.45;;;5.03;;
9698;SDS011;10089;47.876;8.346;2023-05-28T00:27:31;7.80;;;4.97;;
9698;SDS011;10089;47.876;8.346;2023-05-28T00:29:56;8.27;;;5.13;;
9698;SDS011;10089;47.876;8.346;2023-05-28T00:32:22;11.70;;;5.28;;
9698;SDS011;10089;47.876;8.346;2023-05-28T00:34:48;9.00;;;4.90;;
9698;SDS011;10089;47.876;8.346;2023-05-28T00:37:13;8.35;;;5.10;;
9698;SDS011;10089;47.876;8.346;2023-05-28T00:39:39;12.30;;;5.53;;
9698;SDS011;10089;47.876;8.346;2023-05-28T00:42:05;8.23;;;5.13;;
9698;SDS011;10089;47.876;8.346;2023-05-28T00:44:35;7.75;;;5.05;;
9698;SDS011;10089;47.876;8.346;2023-05-28T00:47:01;8.90;;;4.72;;
9698;SDS011;10089;47.876;8.346;2023-05-28T00:49:27;9.80;;;5.28;;
9698;SDS011;10089;47.876;8.346;2023-05-28T00:51:53;9.07;;;4.50;;
9698;SDS011;10089;47.876;8.346;2023-05-28T00:54:21;10.32;;;4.28;;
9698;SDS011;10089;47.876;8.346;2023-05-28T00:56:48;8.90;;;4.55;;
9698;SDS011;10089;47.876;8.346;2023-05-28T00:59:16;11.32;;;5.20;;
9698;SDS011;10089;47.876;8.346;2023-05-28T01:01:43;10.10;;;4.53;;
9698;SDS011;10089;47.876;8.346;2023-05-28T01:04:09;7.85;;;4.90;;
9698;SDS011;10089;47.876;8.346;2023-05-28T01:06:35;14.38;;;5.25;;
9698;SDS011;10089;47.876;8.346;2023-05-28T01:09:07;10.00;;;4.70;;
9698;SDS011;10089;47.876;8.346;2023-05-28T01:11:34;7.25;;;4.13;;
9698;SDS011;10089;47.876;8.346;2023-05-28T01:14:00;7.85;;;5.20;;
9698;SDS011;10089;47.876;8.346;2023-05-28T01:16:27;9.80;;;5.05;;
9698;SDS011;10089;47.876;8.346;2023-05-28T01:18:54;9.40;;;5.28;;
9698;SDS011;10089;47.876;8.346;2023-05-28T01:21:24;9.85;;;4.47;;
9698;SDS011;10089;47.876;8.346;2023-05-28T01:23:50;13.15;;;5.05;;
9698;SDS011;10089;47.876;8.346;2023-05-28T01:26:16;11.95;;;5.20;;
9698;SDS011;10089;47.876;8.346;2023-05-28T01:28:46;9.15;;;4.82;;
9698;SDS011;10089;47.876;8.346;2023-05-28T01:31:12;9.60;;;4.82;;
9698;SDS011;10089;47.876;8.346;2023-05-28T01:33:39;10.38;;;4.90;;
9698;SDS011;10089;47.876;8.346;2023-05-28T01:36:08;7.22;;;4.75;;
9698;SDS011;10089;47.876;8.346;2023-05-28T01:38:46;6.25;;;5.05;;
9698;SDS011;10089;47.876;8.346;2023-05-28T01:41:13;11.30;;;5.60;;
9698;SDS011;10089;47.876;8.346;2023-05-28T01:43:40;9.15;;;4.80;;
9698;SDS011;10089;47.876;8.346;2023-05-28T01:46:07;6.78;;;4.40;;
9698;SDS011;10089;47.876;8.346;2023-05-28T01:48:34;8.25;;;4.70;;
9698;SDS011;10089;47.876;8.346;2023-05-28T01:51:00;8.57;;;5.05;;
9698;SDS011;10089;47.876;8.346;2023-05-28T01:53:26;13.45;;;5.15;;
9698;SDS011;10089;47.876;8.346;2023-05-28T01:55:51;7.18;;;4.50;;
9698;SDS011;10089;47.876;8.346;2023-05-28T01:58:20;6.63;;;5.10;;
9698;SDS011;10089;47.876;8.346;2023-05-28T02:00:49;7.90;;;5.30;;
9698;SDS011;10089;47.876;8.346;2023-05-28T02:03:24;8.88;;;4.68;;
9698;SDS011;10089;47.876;8.346;2023-05-28T02:05:50;9.85;;;4.82;;
9698;SDS011;10089;47.876;8.346;2023-05-28T02:08:16;9.35;;;4.88;;
9698;SDS011;10089;47.876;8.346;2023-05-28T02:10:42;9.65;;;4.88;;
9698;SDS011;10089;47.876;8.346;2023-05-28T02:13:07;8.50;;;4.65;;
9698;SDS011;10089;47.876;8.346;2023-05-28T02:15:33;9.73;;;4.50;;
9698;SDS011;10089;47.876;8.346;2023-05-28T02:17:58;12.32;;;4.57;;
9698;SDS011;10089;47.876;8.346;2023-05-28T02:20:24;7.10;;;3.85;;
9698;SDS011;10089;47.876;8.346;2023-05-28T02:22:50;6.80;;;4.60;;
9698;SDS011;10089;47.876;8.346;2023-05-28T02:25:15;8.80;;;4.20;;
9698;SDS011;10089;47.876;8.346;2023-05-28T02:27:41;9.57;;;5.18;;
9698;SDS011;10089;47.876;8.346;2023-05-28T02:30:07;9.73;;;4.95;;
9698;SDS011;10089;47.876;8.346;2023-05-28T02:32:35;9.75;;;4.25;;
9698;SDS011;10089;47.876;8.346;2023-05-28T02:35:01;10.02;;;5.15;;
9698;SDS011;10089;47.876;8.346;2023-05-28T02:37:27;9.85;;;4.57;;
9698;SDS011;10089;47.876;8.346;2023-05-28T02:39:53;8.50;;;4.43;;
9698;SDS011;10089;47.876;8.346;2023-05-28T02:42:18;11.48;;;5.18;;
9698;SDS011;10089;47.876;8.346;2023-05-28T02:44:44;9.20;;;4.55;;
9698;SDS011;10089;47.876;8.346;2023-05-28T02:47:10;6.20;;;4.25;;
9698;SDS011;10089;47.876;8.346;2023-05-28T02:49:35;7.47;;;4.70;;
9698;SDS011;10089;47.876;8.346;2023-05-28T02:52:01;10.73;;;4.53;;
9698;SDS011;10089;47.876;8.346;2023-05-28T02:54:27;11.23;;;4.72;;
9698;SDS011;10089;47.876;8.346;2023-05-28T02:56:52;7.28;;;4.32;;
9698;SDS011;10089;47.876;8.346;2023-05-28T02:59:18;9.25;;;5.30;;
9698;SDS011;10089;47.876;8.346;2023-05-28T03:01:44;10.57;;;4.43;;
9698;SDS011;10089;47.876;8.346;2023-05-28T03:04:09;7.00;;;4.05;;
9698;SDS011;10089;47.876;8.346;2023-05-28T03:06:35;9.98;;;4.85;;
9698;SDS011;10089;47.876;8.346;2023-05-28T03:09:01;7.65;;;4.28;;
9698;SDS011;10089;47.876;8.346;2023-05-28T03:11:27;9.05;;;4.22;;
9698;SDS011;10089;47.876;8.346;2023-05-28T03:13:52;8.32;;;3.88;;
9698;SDS011;10089;47.876;8.346;2023-05-28T03:16:18;8.30;;;4.43;;
9698;SDS011;10089;47.876;8.346;2023-05-28T03:18:44;9.23;;;4.68;;
9698;SDS011;10089;47.876;8.346;2023-05-28T03:21:09;10.23;;;4.57;;
9698;SDS011;10089;47.876;8.346;2023-05-28T03:23:36;8.20;;;4.32;;
9698;SDS011;10089;47.876;8.346;2023-05-28T03:26:01;7.22;;;4.30;;
9698;SDS011;10089;47.876;8.346;2023-05-28T03:28:27;10.05;;;4.25;;
9698;SDS011;10089;47.876;8.346;2023-05-28T03:30:54;9.57;;;4.28;;
9698;SDS011;10089;47.876;8.346;2023-05-28T03:33:22;6.85;;;4.38;;
9698;SDS011;10089;47.876;8.346;2023-05-28T03:35:48;6.32;;;4.25;;
9698;SDS011;10089;47.876;8.346;2023-05-28T03:38:13;7.45;;;4.30;;
9698;SDS011;10089;47.876;8.346;2023-05-28T03:40:39;8.63;;;3.90;;
9698;SDS011;10089;47.876;8.346;2023-05-28T03:43:05;5.80;;;3.92;;
9698;SDS011;10089;47.876;8.346;2023-05-28T03:45:32;10.63;;;4.45;;
9698;SDS011;10089;47.876;8.346;2023-05-28T03:47:58;5.45;;;3.50;;
9698;SDS011;10089;47.876;8.346;2023-05-28T03:50:24;10.80;;;5.00;;
9698;SDS011;10089;47.876;8.346;2023-05-28T03:52:50;8.35;;;4.28;;
9698;SDS011;10089;47.876;8.346;2023-05-28T03:55:15;9.15;;;4.22;;
9698;SDS011;10089;47.876;8.346;2023-05-28T03:57:41;6.45;;;3.78;;
9698;SDS011;10089;47.876;8.346;2023-05-28T04:00:07;7.65;;;4.05;;
9698;SDS011;10089;47.876;8.346;2023-05-28T04:02:34;9.43;;;4.07;;
9698;SDS011;10089;47.876;8.346;2023-05-28T04:05:00;11.15;;;4.28;;
9698;SDS011;10089;47.876;8.346;2023-05-28T04:07:25;7.30;;;3.78;;
9698;SDS011;10089;47.876;8.346;2023-05-28T04:09:51;7.63;;;3.97;;
9698;SDS011;10089;47.876;8.346;2023-05-28T04:12:17;8.55;;;4.30;;
9698;SDS011;10089;47.876;8.346;2023-05-28T04:14:42;9.15;;;4.68;;
9698;SDS011;10089;47.876;8.346;2023-05-28T04:17:08;11.02;;;4.35;;
9698;SDS011;10089;47.876;8.346;2023-05-28T04:19:37;8.38;;;4.15;;
9698;SDS011;10089;47.876;8.346;2023-05-28T04:22:03;10.43;;;3.55;;
9698;SDS011;10089;47.876;8.346;2023-05-28T04:24:29;7.13;;;3.75;;
9698;SDS011;10089;47.876;8.346;2023-05-28T04:26:54;6.68;;;4.03;;
9698;SDS011;10089;47.876;8.346;2023-05-28T04:29:22;13.07;;;4.30;;
9698;SDS011;10089;47.876;8.346;2023-05-28T04:31:50;9.35;;;3.90;;
9698;SDS011;10089;47.876;8.346;2023-05-28T04:34:16;10.10;;;3.88;;
9698;SDS011;10089;47.876;8.346;2023-05-28T04:36:42;10.20;;;3.85;;
9698;SDS011;10089;47.876;8.346;2023-05-28T04:39:09;9.75;;;3.60;;
9698;SDS011;10089;47.876;8.346;2023-05-28T04:41:35;5.65;;;4.18;;
9698;SDS011;10089;47.876;8.346;2023-05-28T04:44:01;6.75;;;3.58;;
9698;SDS011;10089;47.876;8.346;2023-05-28T04:46:29;8.77;;;4.25;;
9698;SDS011;10089;47.876;8.346;2023-05-28T04:48:55;8.15;;;3.90;;
9698;SDS011;10089;47.876;8.346;2023-05-28T04:51:20;6.57;;;3.90;;
9698;SDS011;10089;47.876;8.346;2023-05-28T04:53:46;10.77;;;3.90;;
9698;SDS011;10089;47.876;8.346;2023-05-28T04:56:13;11.38;;;4.57;;
9698;SDS011;10089;47.876;8.346;2023-05-28T04:58:39;8.52;;;4.15;;
9698;SDS011;10089;47.876;8.346;2023-05-28T05:01:05;9.23;;;3.92;;
9698;SDS011;10089;47.876;8.346;2023-05-28T05:03:33;7.18;;;3.45;;
9698;SDS011;10089;47.876;8.346;2023-05-28T05:05:59;10.50;;;4.38;;
9698;SDS011;10089;47.876;8.346;2023-05-28T05:08:24;8.88;;;3.83;;
9698;SDS011;10089;47.876;8.346;2023-05-28T05:10:50;10.85;;;4.03;;
9698;SDS011;10089;47.876;8.346;2023-05-28T05:13:16;8.60;;;3.55;;
9698;SDS011;10089;47.876;8.346;2023-05-28T05:15:42;8.82;;;4.30;;
9698;SDS011;10089;47.876;8.346;2023-05-28T05:18:07;10.20;;;3.70;;
9698;SDS011;10089;47.876;8.346;2023-05-28T05:20:33;8.95;;;4.18;;
9698;SDS011;10089;47.876;8.346;2023-05-28T05:22:59;11.23;;;3.95;;
9698;SDS011;10089;47.876;8.346;2023-05-28T05:25:24;9.88;;;3.95;;
9698;SDS011;10089;47.876;8.346;2023-05-28T05:27:50;7.80;;;4.47;;
9698;SDS011;10089;47.876;8.346;2023-05-28T05:30:16;9.43;;;4.28;;
9698;SDS011;10089;47.876;8.346;2023-05-28T05:32:42;8.20;;;4.13;;
9698;SDS011;10089;47.876;8.346;2023-05-28T05:35:08;8.35;;;3.83;;
9698;SDS011;10089;47.876;8.346;2023-05-28T05:37:34;8.27;;;3.95;;
9698;SDS011;10089;47.876;8.346;2023-05-28T05:40:01;8.35;;;4.13;;
9698;SDS011;10089;47.876;8.346;2023-05-28T05:42:29;5.72;;;3.45;;
9698;SDS011;10089;47.876;8.346;2023-05-28T05:44:55;7.28;;;4.03;;
9698;SDS011;10089;47.876;8.346;2023-05-28T05:47:20;8.40;;;3.80;;
9698;SDS011;10089;47.876;8.346;2023-05-28T05:49:46;8.38;;;3.90;;
9698;SDS011;10089;47.876;8.346;2023-05-28T05:52:13;8.93;;;3.85;;
9698;SDS011;10089;47.876;8.346;2023-05-28T05:54:41;7.75;;;4.50;;
9698;SDS011;10089;47.876;8.346;2023-05-28T05:57:06;8.23;;;3.97;;
9698;SDS011;10089;47.876;8.346;2023-05-28T05:59:33;9.07;;;4.15;;
9698;SDS011;10089;47.876;8.346;2023-05-28T06:04:30;8.55;;;4.20;;
9698;SDS011;10089;47.876;8.346;2023-05-28T06:06:57;12.98;;;4.70;;
9698;SDS011;10089;47.876;8.346;2023-05-28T06:09:22;11.98;;;4.20;;
9698;SDS011;10089;47.876;8.346;2023-05-28T06:11:48;8.10;;;3.83;;
9698;SDS011;10089;47.876;8.346;2023-05-28T06:14:15;10.18;;;3.75;;
9698;SDS011;10089;47.876;8.346;2023-05-28T06:16:40;11.07;;;4.45;;
9698;SDS011;10089;47.876;8.346;2023-05-28T06:19:06;8.10;;;3.85;;
9698;SDS011;10089;47.876;8.346;2023-05-28T06:21:32;9.25;;;3.97;;
9698;SDS011;10089;47.876;8.346;2023-05-28T06:23:58;9.00;;;4.00;;
9698;SDS011;10089;47.876;8.346;2023-05-28T06:26:23;10.65;;;4.50;;
9698;SDS011;10089;47.876;8.346;2023-05-28T06:28:49;10.25;;;4.47;;
9698;SDS011;10089;47.876;8.346;2023-05-28T06:31:15;9.88;;;4.00;;
9698;SDS011;10089;47.876;8.346;2023-05-28T06:33:40;8.77;;;4.10;;
9698;SDS011;10089;47.876;8.346;2023-05-28T06:36:06;7.60;;;3.95;;
9698;SDS011;10089;47.876;8.346;2023-05-28T06:38:33;10.55;;;4.32;;
9698;SDS011;10089;47.876;8.346;2023-05-28T06:40:59;8.57;;;3.78;;
9698;SDS011;10089;47.876;8.346;2023-05-28T06:43:24;7.00;;;3.78;;
9698;SDS011;10089;47.876;8.346;2023-05-28T06:45:50;10.07;;;4.45;;
9698;SDS011;10089;47.876;8.346;2023-05-28T06:48:15;7.97;;;3.85;;
9698;SDS011;10089;47.876;8.346;2023-05-28T06:50:41;10.10;;;3.60;;
9698;SDS011;10089;47.876;8.346;2023-05-28T06:53:07;10.10;;;4.03;;
9698;SDS011;10089;47.876;8.346;2023-05-28T06:55:33;8.88;;;3.95;;
9698;SDS011;10089;47.876;8.346;2023-05-28T06:57:58;8.82;;;4.18;;
9698;SDS011;10089;47.876;8.346;2023-05-28T07:00:30;7.38;;;3.75;;
9698;SDS011;10089;47.876;8.346;2023-05-28T07:02:56;11.38;;;3.92;;
9698;SDS011;10089;47.876;8.346;2023-05-28T07:05:22;7.35;;;4.28;;
9698;SDS011;10089;47.876;8.346;2023-05-28T07:07:47;10.25;;;4.03;;
9698;SDS011;10089;47.876;8.346;2023-05-28T07:10:13;12.45;;;4.43;;
9698;SDS011;10089;47.876;8.346;2023-05-28T07:12:39;9.05;;;4.40;;
9698;SDS011;10089;47.876;8.346;2023-05-28T07:15:05;9.30;;;3.88;;
9698;SDS011;10089;47.876;8.346;2023-05-28T07:17:31;7.82;;;3.75;;
9698;SDS011;10089;47.876;8.346;2023-05-28T07:19:57;8.15;;;3.88;;
9698;SDS011;10089;47.876;8.346;2023-05-28T07:22:23;9.00;;;3.72;;
9698;SDS011;10089;47.876;8.346;2023-05-28T07:24:50;9.45;;;3.60;;
9698;SDS011;10089;47.876;8.346;2023-05-28T07:27:15;10.93;;;3.85;;
9698;SDS011;10089;47.876;8.346;2023-05-28T07:29:41;9.38;;;4.13;;
9698;SDS011;10089;47.876;8.346;2023-05-28T07:32:07;11.57;;;4.00;;
9698;SDS011;10089;47.876;8.346;2023-05-28T07:34:39;9.98;;;4.18;;
9698;SDS011;10089;47.876;8.346;2023-05-28T07:37:05;11.73;;;3.92;;
9698;SDS011;10089;47.876;8.346;2023-05-28T07:39:31;8.98;;;3.50;;
9698;SDS011;10089;47.876;8.346;2023-05-28T07:41:56;14.93;;;3.80;;
9698;SDS011;10089;47.876;8.346;2023-05-28T07:44:22;9.38;;;4.18;;
9698;SDS011;10089;47.876;8.346;2023-05-28T07:46:48;7.88;;;3.70;;
9698;SDS011;10089;47.876;8.346;2023-05-28T07:49:13;10.55;;;3.80;;
9698;SDS011;10089;47.876;8.346;2023-05-28T07:51:41;7.03;;;4.13;;
9698;SDS011;10089;47.876;8.346;2023-05-28T07:54:07;10.27;;;4.10;;
9698;SDS011;10089;47.876;8.346;2023-05-28T07:56:33;9.40;;;4.13;;
9698;SDS011;10089;47.876;8.346;2023-05-28T07:58:58;5.82;;;4.03;;
9698;SDS011;10089;47.876;8.346;2023-05-28T08:01:24;9.43;;;4.18;;
9698;SDS011;10089;47.876;8.346;2023-05-28T08:03:50;12.70;;;4.07;;
9698;SDS011;10089;47.876;8.346;2023-05-28T08:06:19;14.27;;;4.38;;
9698;SDS011;10089;47.876;8.346;2023-05-28T08:08:45;6.97;;;3.80;;
9698;SDS011;10089;47.876;8.346;2023-05-28T08:11:11;10.02;;;3.80;;
9698;SDS011;10089;47.876;8.346;2023-05-28T08:13:39;11.10;;;4.78;;
9698;SDS011;10089;47.876;8.346;2023-05-28T08:16:05;7.50;;;4.07;;
9698;SDS011;10089;47.876;8.346;2023-05-28T08:18:31;13.30;;;4.45;;
9698;SDS011;10089;47.876;8.346;2023-05-28T08:20:56;8.50;;;3.97;;
9698;SDS011;10089;47.876;8.346;2023-05-28T08:23:22;10.73;;;3.90;;
9698;SDS011;10089;47.876;8.346;2023-05-28T08:25:48;7.75;;;3.88;;
9698;SDS011;10089;47.876;8.346;2023-05-28T08:28:16;6.57;;;3.53;;
9698;SDS011;10089;47.876;8.346;2023-05-28T08:30:42;11.15;;;4.70;;
9698;SDS011;10089;47.876;8.346;2023-05-28T08:33:08;6.18;;;3.40;;
9698;SDS011;10089;47.876;8.346;2023-05-28T08:35:33;10.57;;;4.28;;
9698;SDS011;10089;47.876;8.346;2023-05-28T08:38:00;8.00;;;3.70;;
9698;SDS011;10089;47.876;8.346;2023-05-28T08:40:26;9.85;;;4.40;;
9698;SDS011;10089;47.876;8.346;2023-05-28T08:42:53;12.02;;;4.55;;
9698;SDS011;10089;47.876;8.346;2023-05-28T08:45:19;8.88;;;4.10;;
9698;SDS011;10089;47.876;8.346;2023-05-28T08:47:46;7.07;;;3.90;;
9698;SDS011;10089;47.876;8.346;2023-05-28T08:50:12;7.32;;;4.07;;
9698;SDS011;10089;47.876;8.346;2023-05-28T08:52:41;13.07;;;4.32;;
9698;SDS011;10089;47.876;8.346;2023-05-28T08:55:07;10.15;;;3.85;;
9698;SDS011;10089;47.876;8.346;2023-05-28T08:57:33;8.02;;;4.03;;
9698;SDS011;10089;47.876;8.346;2023-05-28T09:00:00;11.38;;;4.80;;
9698;SDS011;10089;47.876;8.346;2023-05-28T09:02:32;9.55;;;3.80;;
9698;SDS011;10089;47.876;8.346;2023-05-28T09:04:58;9.30;;;4.20;;
9698;SDS011;10089;47.876;8.346;2023-05-28T09:07:24;9.13;;;3.67;;
9698;SDS011;10089;47.876;8.346;2023-05-28T09:09:51;6.88;;;3.72;;
9698;SDS011;10089;47.876;8.346;2023-05-28T09:12:21;8.80;;;3.92;;
9698;SDS011;10089;47.876;8.346;2023-05-28T09:14:49;7.45;;;3.75;;
9698;SDS011;10089;47.876;8.346;2023-05-28T09:17:21;8.13;;;3.75;;
9698;SDS011;10089;47.876;8.346;2023-05-28T09:20:10;7.38;;;4.05;;
9698;SDS011;10089;47.876;8.346;2023-05-28T09:22:38;8.55;;;3.72;;
9698;SDS011;10089;47.876;8.346;2023-05-28T09:25:07;8.88;;;4.40;;
9698;SDS011;10089;47.876;8.346;2023-05-28T09:27:33;9.20;;;3.95;;
9698;SDS011;10089;47.876;8.346;2023-05-28T09:30:06;9.48;;;4.07;;
9698;SDS011;10089;47.876;8.346;2023-05-28T09:32:33;7.82;;;4.22;;
9698;SDS011;10089;47.876;8.346;2023-05-28T09:37:40;7.97;;;3.92;;
9698;SDS011;10089;47.876;8.346;2023-05-28T09:40:06;7.45;;;3.42;;
9698;SDS011;10089;47.876;8.346;2023-05-28T09:42:39;9.88;;;3.50;;
9698;SDS011;10089;47.876;8.346;2023-05-28T09:45:07;6.70;;;3.67;;
9698;SDS011;10089;47.876;8.346;2023-05-28T09:47:41;7.35;;;3.72;;
9698;SDS011;10089;47.876;8.346;2023-05-28T09:50:08;7.22;;;3.63;;
9698;SDS011;10089;47.876;8.346;2023-05-28T09:52:35;8.07;;;3.83;;
9698;SDS011;10089;47.876;8.346;2023-05-28T09:55:07;9.93;;;3.83;;
9698;SDS011;10089;47.876;8.346;2023-05-28T09:57:45;17.52;;;3.47;;
9698;SDS011;10089;47.876;8.346;2023-05-28T10:00:17;8.05;;;3.83;;
9698;SDS011;10089;47.876;8.346;2023-05-28T10:05:48;6.72;;;3.38;;
9698;SDS011;10089;47.876;8.346;2023-05-28T10:08:17;9.45;;;4.10;;
9698;SDS011;10089;47.876;8.346;2023-05-28T10:10:49;7.03;;;3.67;;
9698;SDS011;10089;47.876;8.346;2023-05-28T10:13:18;7.32;;;3.35;;
9698;SDS011;10089;47.876;8.346;2023-05-28T10:15:44;7.28;;;3.72;;
9698;SDS011;10089;47.876;8.346;2023-05-28T10:18:11;8.52;;;3.80;;
9698;SDS011;10089;47.876;8.346;2023-05-28T10:20:39;6.68;;;3.47;;
9698;SDS011;10089;47.876;8.346;2023-05-28T10:23:06;6.00;;;3.33;;
9698;SDS011;10089;47.876;8.346;2023-05-28T10:25:33;8.65;;;3.95;;
9698;SDS011;10089;47.876;8.346;2023-05-28T10:27:59;6.60;;;3.35;;
9698;SDS011;10089;47.876;8.346;2023-05-28T10:30:37;9.15;;;3.60;;
9698;SDS011;10089;47.876;8.346;2023-05-28T10:33:16;10.98;;;3.85;;
9698;SDS011;10089;47.876;8.346;2023-05-28T10:35:57;6.13;;;3.50;;
9698;SDS011;10089;47.876;8.346;2023-05-28T10:38:25;7.45;;;3.25;;
9698;SDS011;10089;47.876;8.346;2023-05-28T10:40:58;6.05;;;3.47;;
9698;SDS011;10089;47.876;8.346;2023-05-28T10:51:45;10.45;;;3.60;;
9698;SDS011;10089;47.876;8.346;2023-05-28T10:54:24;8.52;;;3.38;;
9698;SDS011;10089;47.876;8.346;2023-05-28T10:57:05;7.05;;;3.40;;
9698;SDS011;10089;47.876;8.346;2023-05-28T10:59:45;9.25;;;3.45;;
9698;SDS011;10089;47.876;8.346;2023-05-28T11:02:16;6.82;;;3.45;;
9698;SDS011;10089;47.876;8.346;2023-05-28T11:04:44;7.10;;;3.42;;
9698;SDS011;10089;47.876;8.346;2023-05-28T11:07:11;7.88;;;3.80;;
9698;SDS011;10089;47.876;8.346;2023-05-28T11:09:38;5.70;;;3.30;;
9698;SDS011;10089;47.876;8.346;2023-05-28T11:12:04;6.93;;;3.35;;
9698;SDS011;10089;47.876;8.346;2023-05-28T11:14:37;8.85;;;3.85;;
9698;SDS011;10089;47.876;8.346;2023-05-28T11:17:10;7.55;;;3.70;;
9698;SDS011;10089;47.876;8.346;2023-05-28T11:22:10;7.13;;;3.22;;
9698;SDS011;10089;47.876;8.346;2023-05-28T11:27:37;9.40;;;3.25;;
9698;SDS011;10089;47.876;8.346;2023-05-28T11:30:19;10.38;;;3.78;;
9698;SDS011;10089;47.876;8.346;2023-05-28T11:32:46;12.98;;;3.22;;
9698;SDS011;10089;47.876;8.346;2023-05-28T11:35:13;5.20;;;3.42;;
9698;SDS011;10089;47.876;8.346;2023-05-28T11:37:41;6.90;;;3.30;;
9698;SDS011;10089;47.876;8.346;2023-05-28T11:40:09;6.07;;;3.17;;
9698;SDS011;10089;47.876;8.346;2023-05-28T11:42:42;11.88;;;3.13;;
9698;SDS011;10089;47.876;8.346;2023-05-28T11:45:09;7.43;;;3.42;;
9698;SDS011;10089;47.876;8.346;2023-05-28T11:47:36;5.18;;;3.45;;
9698;SDS011;10089;47.876;8.346;2023-05-28T11:50:07;6.95;;;3.53;;
9698;SDS011;10089;47.876;8.346;2023-05-28T11:52:39;7.03;;;3.30;;
9698;SDS011;10089;47.876;8.346;2023-05-28T11:55:05;7.45;;;3.47;;
9698;SDS011;10089;47.876;8.346;2023-05-28T11:57:32;7.05;;;3.40;;
9698;SDS011;10089;47.876;8.346;2023-05-28T12:02:24;5.05;;;2.90;;
9698;SDS011;10089;47.876;8.346;2023-05-28T12:07:26;6.57;;;3.50;;
9698;SDS011;10089;47.876;8.346;2023-05-28T12:12:39;5.78;;;3.38;;
9698;SDS011;10089;47.876;8.346;2023-05-28T12:17:42;6.65;;;3.00;;
9698;SDS011;10089;47.876;8.346;2023-05-28T12:22:44;5.40;;;3.00;;
9698;SDS011;10089;47.876;8.346;2023-05-28T12:28:09;4.72;;;3.08;;
9698;SDS011;10089;47.876;8.346;2023-05-28T12:30:37;6.47;;;3.17;;
9698;SDS011;10089;47.876;8.346;2023-05-28T12:33:04;5.15;;;2.70;;
9698;SDS011;10089;47.876;8.346;2023-05-28T12:35:29;5.05;;;3.22;;
9698;SDS011;10089;47.876;8.346;2023-05-28T12:37:55;7.28;;;3.55;;
9698;SDS011;10089;47.876;8.346;2023-05-28T12:40:21;5.30;;;2.80;;
9698;SDS011;10089;47.876;8.346;2023-05-28T12:42:47;5.82;;;2.97;;
9698;SDS011;10089;47.876;8.346;2023-05-28T12:45:14;6.38;;;3.33;;
9698;SDS011;10089;47.876;8.346;2023-05-28T12:47:40;5.78;;;2.80;;
9698;SDS011;10089;47.876;8.346;2023-05-28T12:50:06;6.22;;;2.97;;
9698;SDS011;10089;47.876;8.346;2023-05-28T12:52:32;6.03;;;2.90;;
9698;SDS011;10089;47.876;8.346;2023-05-28T12:55:02;7.07;;;3.13;;
9698;SDS011;10089;47.876;8.346;2023-05-28T12:57:28;5.82;;;2.92;;
9698;SDS011;10089;47.876;8.346;2023-05-28T13:05:03;5.70;;;3.20;;
9698;SDS011;10089;47.876;8.346;2023-05-28T13:07:29;5.15;;;3.50;;
9698;SDS011;10089;47.876;8.346;2023-05-28T13:09:55;6.60;;;2.90;;
9698;SDS011;10089;47.876;8.346;2023-05-28T13:12:36;3.80;;;2.20;;
9698;SDS011;10089;47.876;8.346;2023-05-28T13:15:05;4.05;;;2.50;;
9698;SDS011;10089;47.876;8.346;2023-05-28T13:17:32;6.53;;;2.92;;
9698;SDS011;10089;47.876;8.346;2023-05-28T13:19:58;2.97;;;2.33;;
9698;SDS011;10089;47.876;8.346;2023-05-28T13:22:24;4.43;;;2.65;;
9698;SDS011;10089;47.876;8.346;2023-05-28T13:24:50;6.28;;;2.60;;
9698;SDS011;10089;47.876;8.346;2023-05-28T13:27:16;5.75;;;3.20;;
9698;SDS011;10089;47.876;8.346;2023-05-28T13:29:42;4.95;;;2.75;;
9698;SDS011;10089;47.876;8.346;2023-05-28T13:32:08;4.43;;;2.88;;
9698;SDS011;10089;47.876;8.346;2023-05-28T13:34:34;4.25;;;2.70;;
9698;SDS011;10089;47.876;8.346;2023-05-28T13:36:59;6.80;;;3.03;;
9698;SDS011;10089;47.876;8.346;2023-05-28T13:39:25;5.65;;;2.90;;
9698;SDS011;10089;47.876;8.346;2023-05-28T13:41:51;5.43;;;2.72;;
9698;SDS011;10089;47.876;8.346;2023-05-28T13:44:18;3.88;;;2.50;;
9698;SDS011;10089;47.876;8.346;2023-05-28T13:46:43;6.18;;;2.58;;
9698;SDS011;10089;47.876;8.346;2023-05-28T13:49:09;5.78;;;2.90;;
9698;SDS011;10089;47.876;8.346;2023-05-28T13:51:35;5.20;;;2.70;;
9698;SDS011;10089;47.876;8.346;2023-05-28T13:54:04;5.20;;;2.63;;
9698;SDS011;10089;47.876;8.346;2023-05-28T13:56:30;4.05;;;2.70;;
9698;SDS011;10089;47.876;8.346;2023-05-28T13:58:55;5.40;;;2.78;;
9698;SDS011;10089;47.876;8.346;2023-05-28T14:01:25;5.13;;;2.97;;
9698;SDS011;10089;47.876;8.346;2023-05-28T14:03:52;4.20;;;2.67;;
9698;SDS011;10089;47.876;8.346;2023-05-28T14:06:17;6.45;;;2.65;;
9698;SDS011;10089;47.876;8.346;2023-05-28T14:08:43;5.93;;;2.95;;
9698;SDS011;10089;47.876;8.346;2023-05-28T14:11:09;4.70;;;3.00;;
9698;SDS011;10089;47.876;8.346;2023-05-28T14:13:34;7.78;;;2.90;;
9698;SDS011;10089;47.876;8.346;2023-05-28T14:16:00;5.63;;;2.80;;
9698;SDS011;10089;47.876;8.346;2023-05-28T14:18:26;4.30;;;2.70;;
9698;SDS011;10089;47.876;8.346;2023-05-28T14:20:52;5.28;;;2.55;;
9698;SDS011;10089;47.876;8.346;2023-05-28T14:23:17;4.72;;;2.83;;
9698;SDS011;10089;47.876;8.346;2023-05-28T14:25:43;5.15;;;2.60;;
9698;SDS011;10089;47.876;8.346;2023-05-28T14:28:09;7.95;;;2.97;;
9698;SDS011;10089;47.876;8.346;2023-05-28T14:30:34;4.82;;;2.75;;
9698;SDS011;10089;47.876;8.346;2023-05-28T14:33:00;7.32;;;2.58;;
9698;SDS011;10089;47.876;8.346;2023-05-28T14:35:29;10.25;;;2.97;;
9698;SDS011;10089;47.876;8.346;2023-05-28T14:37:54;5.70;;;3.00;;
9698;SDS011;10089;47.876;8.346;2023-05-28T14:40:20;5.03;;;2.90;;
9698;SDS011;10089;47.876;8.346;2023-05-28T14:42:46;7.22;;;2.90;;
9698;SDS011;10089;47.876;8.346;2023-05-28T14:45:13;4.70;;;2.80;;
9698;SDS011;10089;47.876;8.346;2023-05-28T14:47:39;5.60;;;2.85;;
9698;SDS011;10089;47.876;8.346;2023-05-28T14:50:05;6.93;;;3.17;;
9698;SDS011;10089;47.876;8.346;2023-05-28T14:52:32;5.40;;;3.20;;
9698;SDS011;10089;47.876;8.346;2023-05-28T14:54:58;6.70;;;3.35;;
9698;SDS011;10089;47.876;8.346;2023-05-28T14:57:24;8.60;;;3.72;;
9698;SDS011;10089;47.876;8.346;2023-05-28T15:00:10;6.47;;;3.60;;
9698;SDS011;10089;47.876;8.346;2023-05-28T15:02:36;5.25;;;3.40;;
9698;SDS011;10089;47.876;8.346;2023-05-28T15:05:02;5.70;;;3.42;;
9698;SDS011;10089;47.876;8.346;2023-05-28T15:07:29;5.72;;;3.30;;
9698;SDS011;10089;47.876;8.346;2023-05-28T15:09:55;8.15;;;3.70;;
9698;SDS011;10089;47.876;8.346;2023-05-28T15:12:21;5.13;;;3.25;;
9698;SDS011;10089;47.876;8.346;2023-05-28T15:14:46;6.20;;;3.63;;
9698;SDS011;10089;47.876;8.346;2023-05-28T15:17:12;9.10;;;3.40;;
9698;SDS011;10089;47.876;8.346;2023-05-28T15:19:38;7.10;;;3.60;;
9698;SDS011;10089;47.876;8.346;2023-05-28T15:22:03;5.10;;;3.38;;
9698;SDS011;10089;47.876;8.346;2023-05-28T15:24:30;5.53;;;3.22;;
9698;SDS011;10089;47.876;8.346;2023-05-28T15:27:01;6.35;;;3.50;;
9698;SDS011;10089;47.876;8.346;2023-05-28T15:29:28;7.32;;;3.60;;
9698;SDS011;10089;47.876;8.346;2023-05-28T15:31:55;6.53;;;3.78;;
9698;SDS011;10089;47.876;8.346;2023-05-28T15:34:22;7.15;;;3.58;;
9698;SDS011;10089;47.876;8.346;2023-05-28T15:36:48;8.68;;;3.40;;
9698;SDS011;10089;47.876;8.346;2023-05-28T15:39:14;5.50;;;3.63;;